»·PEaware :: GTH500 KONT-KSAN

GTH500 :: KONT-KSAN

FLIGHT INFORMATION

Flight Status: Arrived
Operator: Unknown
More flights by this operator :: More flights under this callsign
Pilot: Peter M. (9586)
Aircraft: DEHAVILLAND DASH 8 400
(DH8D)
More flights by this aircraft type
Origin: KONT Ontario Intl
United States
Destination: KSAN San Diego Intl-Lindbergh
United States
More flights between these airports :: More routes between these airports
Route: +PDZ V186 HAILE V66 MZB
File this flight plan on PilotEdge
Remarks:
Altitude:
(Current/Filed)
11,000ft
Speed:
(Current/Filed)
200kts
Departed: 03-Dec-17 08:40 PM
Arrived: 03-Dec-17 09:17 PM
Distance/Time
Traveled:
82nm/0:36
Distance/Time
To Go:
Arrived

Flight Plot

Page will automatically refresh every two minutes.


Map Options




Map Legend


Flown Route
Filed Route
Departure Airport
Arrival Airport
Navaid (VOR, NDB)
Fix

Horizontal Profiles

Position Reports

Time Latitude Longitude Heading Altitude Ground
Speed
03-Dec-17 20:06 34.060439 -117.588931 359 951ft 0kts
03-Dec-17 20:07 34.060439 -117.588931 359 951ft 0kts
03-Dec-17 20:08 34.060439 -117.588931 359 951ft 0kts
03-Dec-17 20:09 34.060439 -117.588931 359 951ft 0kts
03-Dec-17 20:10 34.060439 -117.588931 359 951ft 0kts
03-Dec-17 20:11 34.060439 -117.588931 359 951ft 0kts
03-Dec-17 20:12 34.060439 -117.588931 359 951ft 0kts
03-Dec-17 20:13 34.060439 -117.588931 359 951ft 0kts
03-Dec-17 20:14 34.060439 -117.588931 359 951ft 0kts
03-Dec-17 20:15 34.060439 -117.588931 359 951ft 0kts
03-Dec-17 20:16 34.060440 -117.588931 359 951ft 0kts
03-Dec-17 20:17 34.060440 -117.588931 359 951ft 0kts
03-Dec-17 20:18 34.060440 -117.588931 359 951ft 0kts
03-Dec-17 20:19 34.060440 -117.588931 359 951ft 0kts
03-Dec-17 20:20 34.060440 -117.588931 359 951ft 0kts
03-Dec-17 20:21 34.060440 -117.588931 359 951ft 0kts
03-Dec-17 20:22 34.060440 -117.588931 359 951ft 0kts
03-Dec-17 20:23 34.060440 -117.588931 359 951ft 0kts
03-Dec-17 20:24 34.060440 -117.588931 359 951ft 0kts
03-Dec-17 20:25 34.060440 -117.588931 359 951ft 0kts
03-Dec-17 20:26 34.060440 -117.588931 359 951ft 0kts
03-Dec-17 20:27 34.060440 -117.588931 359 951ft 0kts
03-Dec-17 20:28 34.060440 -117.588931 359 951ft 0kts
03-Dec-17 20:29 34.060440 -117.588931 359 951ft 0kts
03-Dec-17 20:30 34.060440 -117.588931 359 951ft 0kts
03-Dec-17 20:31 34.060440 -117.588931 359 951ft 0kts
03-Dec-17 20:32 34.060440 -117.588931 359 951ft 0kts
03-Dec-17 20:33 34.060440 -117.588931 359 951ft 0kts
03-Dec-17 20:34 34.060440 -117.588931 359 951ft 0kts
03-Dec-17 20:35 34.060440 -117.588931 359 951ft 0kts
03-Dec-17 20:36 34.060440 -117.588931 359 951ft 0kts
03-Dec-17 20:37 34.060389 -117.588931 359 951ft 2kts
03-Dec-17 20:38 34.059328 -117.588026 90 951ft 16kts
03-Dec-17 20:39 34.059079 -117.582714 165 951ft 10kts
03-Dec-17 20:40 34.057924 -117.582688 181 951ft 10kts
03-Dec-17 20:41 34.057612 -117.582696 180 951ft 0kts
03-Dec-17 20:42 34.057670 -117.582695 181 951ft 0kts
03-Dec-17 20:43 34.057710 -117.582694 181 951ft 0kts
03-Dec-17 20:44 34.056859 -117.583758 268 951ft 7kts
03-Dec-17 20:45 34.056380 -117.624750 268 1508ft 196kts
03-Dec-17 20:46 34.056363 -117.697238 272 3336ft 223kts
03-Dec-17 20:47 34.029876 -117.749793 183 4629ft 218kts
03-Dec-17 20:48 33.982768 -117.708492 130 5508ft 230kts
03-Dec-17 20:49 33.940710 -117.652702 137 5859ft 225kts
03-Dec-17 20:50 33.918384 -117.583489 104 6128ft 224kts
03-Dec-17 20:51 33.899236 -117.517136 118 6763ft 209kts
03-Dec-17 20:52 33.854725 -117.486963 166 7643ft 184kts
03-Dec-17 20:53 33.803500 -117.470464 175 8697ft 193kts
03-Dec-17 20:54 33.750319 -117.453021 166 9811ft 198kts
03-Dec-17 20:55 33.698353 -117.429710 163 10834ft 202kts
03-Dec-17 20:56 33.640500 -117.403323 163 11027ft 245kts
03-Dec-17 20:57 33.572706 -117.372332 162 11025ft 275kts
03-Dec-17 20:58 33.498517 -117.338457 162 11017ft 284kts
03-Dec-17 20:59 33.428896 -117.306580 163 11016ft 252kts
03-Dec-17 21:00 33.365460 -117.277809 163 11018ft 242kts
03-Dec-17 21:01 33.303679 -117.249888 163 11019ft 237kts
03-Dec-17 21:02 33.244217 -117.220497 142 11006ft 234kts
03-Dec-17 21:03 33.209217 -117.157404 122 11015ft 229kts
03-Dec-17 21:04 33.177494 -117.095637 122 11024ft 222kts
03-Dec-17 21:05 33.143802 -117.031255 122 11025ft 237kts
03-Dec-17 21:06 33.107649 -116.963876 122 11023ft 248kts
03-Dec-17 21:07 33.072359 -116.891133 112 11024ft 263kts
03-Dec-17 21:08 33.045289 -116.811111 110 11021ft 263kts
03-Dec-17 21:09 33.017839 -116.730838 124 11008ft 260kts
03-Dec-17 21:10 32.954473 -116.709071 182 11025ft 246kts
03-Dec-17 21:11 32.890000 -116.707129 182 10732ft 215kts
03-Dec-17 21:12 32.839409 -116.727027 232 9507ft 210kts
03-Dec-17 21:13 32.800440 -116.779987 232 8629ft 225kts
03-Dec-17 21:14 32.761222 -116.833231 232 7565ft 206kts
03-Dec-17 21:15 32.726148 -116.880411 232 6231ft 187kts
03-Dec-17 21:16 32.693217 -116.924759 232 6038ft 177kts
03-Dec-17 21:17 32.681744 -116.971500 282 5847ft 159kts
03-Dec-17 21:18 32.691794 -117.028401 282 5033ft 187kts
03-Dec-17 21:19 32.700016 -117.076194 282 4234ft 162kts
03-Dec-17 21:20 32.719476 -117.133200 280 1078ft 214kts
03-Dec-17 21:21 32.733055 -117.188561 290 23ft 87kts
03-Dec-17 21:22 32.735405 -117.199470 185 22ft 14kts
03-Dec-17 21:23 32.733819 -117.198487 179 22ft 0kts

Navigation Log

Ident Type
1. KONT Airport
2. PDZ Navaid
3. NIKKL Fix
4. WESIN Fix
5. TANNR Fix
6. DEGLE Fix
7. ROBNN Fix
8. HAILE Fix
9. MZB Navaid
10. KSAN Airport